LPPR/OPO METAR and TAF weather

Enter ICAO airport designator
Station Type Date Time Source
LPPR METAR 2021/03/01 22:30 UTC NOAA

LPPR 012230Z 20007KT 9999 FEW015 OVC045 13/10 Q1020


Station Type Date Time Source
LPPR Decoded METAR 2021/03/01 22:30 UTC NOAA

Porto / Pedras Rubras, Portugal (LPPR) 41-14N 008-41W 77M
Mar 01, 2021 - 05:30 PM EST / 2021.03.01 2230 UTC
Wind: from the SSW (200 degrees) at 8 MPH (7 KT):0
Visibility: greater than 7 mile(s):0
Sky conditions: overcast
Temperature: 55 F (13 C)
Dew Point: 50 F (10 C)
Relative Humidity: 81%
Pressure (altimeter): 30.12 in. Hg (1020 hPa)
ob: LPPR 012230Z 20007KT 9999 FEW015 OVC045 13/10 Q1020
cycle: 22

Station Type Date Time Source
LPPR TAF 2021/03/01 18:18 UTC NOAA

TAF LPPR 011700Z 0118/0218 20012KT 9999 FEW015 BKN040 PROB30
TEMPO 0118/0120 8000 SHRA SCT012 BKN020 FEW025CB
BECMG 0120/0123 SCT012 BKN030
TEMPO 0202/0209 5000 BR SCT004 BKN008
BECMG 0215/0218 SCT020

Example: see airport list